此METAR来自2022年8月14日 21:50. 最近的
罗盘
风向 的 风向 050° Norden-Norddeich Airport 16/34
风: 3 kt, 1 beaufort

1 kt

3 kt
改变
0 1.000 2.000 3.000 4.000 5.000
未检测到零云
METAR EDWE 141950Z AUTO 05003KT 9999 // NCD 23/17 Q1005

METAR Norden-Norddeich Airport - EDWS/NOD

Norden-Norddeich Airport是Norddeich,德国中的小机场。 该机场有一条跑道: 16/34. 该领域的国际民航组织标志是EDWS 它的国际航空运输协会代码是NOD.

这份报告是针对2022年8月14日 21:50, 当地时间在Emden Airport进行的。

机场观察

风向为050°,速度为3 kt。

可见度为10 km 或者更多。

有未检测到零云。 没有观察到天花板。

温度和风寒是23 °C。 露点为17 °C,相对湿度为69%。 海平面上的气压为1005 hPa (QNH)。

白天

今天,太阳从07:33升起,在19:08降落。 这适用于Norden-Norddeich Airport,世界夏令时可能有所不同。 当地时间与世界标准时间之间的时差为+2 小时。 夏令时目前正在进行中。

公司介绍

我们没有关于这个机场的公司信息。

体会

到Vliegles.nl去找飞行课程,跳伞和其他飞行体验。 浏览页面,了解Norden-Norddeich Airport附近所有可用的活动。 你也可以使用搜索功能来寻找你所在地附近的特定飞行课程、跳伞或其他飞行体验。

跑道

Id 标题 侧风 逆风 侧风 %
16/34 159°-339° 3 kt 95 %

逆风成分最大的方向会被突出显示,并用于横风计算。 这并不一定意味着这个方向在使用。

乌云

- NCD 未检测到零云

温度 & 天气

温度 23 °C
露点 17 °C
相对湿度 69%
Kp-index 0 (0-9)

白天

日出
06:09
中午
13:35
日落
21:02

小工具

你想在你的网站上有一个关于Norden-Norddeich Airport的当前航空天气(METAR)的小部件吗?

</> 显示HTML代码

我们和第三方通过cookies跟踪您在我们网站上的上网行为。如果您继续,我们认为您同意我们的cookie政策。 了解更多